Historyczne dane pomiarowe

Dodano dane terminowe – wersja testowa.

Dane z okresu 1951-2019

Wersja bazy: 1.34 [2019-03-16, lista zmian], aktualizacja planowana na 2019-04-15

Dane meteo z obszaru Polski uzyskane na podstawie danych udostępnionych przez Instytut Meteorologii i Gospodarki Wodnej – Państwowy Instytut Badawczy.

 

Wybierz Datę:    

       

TemperaturaWilgotnośćZachmurzenieWiatrCiśnienieWidzialnośćZjawiska
 Data    tng td wb rh cc ccl cl cm ch dir g1 g2 mslp ppp      
1994-08-13 00:00:00 16.5--- 13.9 14.984wxwxwxwx4wx--1010.2 995.5 0.0---wxw1
1994-08-13 01:00:00 16.3--- 13.8 14.885wxwxwxwx4wx--1010.4 995.7----wx
1994-08-13 02:00:00 16.2--- 14.2 15.088wxwxwx3wx--1010.3 995.6----wx
1994-08-13 03:00:00 16.8--- 14.2 15.285wxwxwxwx4wx--1010.4 995.7----wx
1994-08-13 04:00:00 16.7--- 13.5 14.882wxwxwxwx3wx--1010.5 995.8----wx
1994-08-13 05:00:00 16.5--- 13.7 14.883wxwxwxwx4wx--1010.6 995.9----wx
1994-08-13 06:00:00 17.2--- 12.1 14.272wxwxwx4wx--1010.4 995.7 0.0---wxw1
1994-08-13 07:00:00 19.1--- 13.3 15.669wxwxwx5wx--1010.1 995.5----wx
1994-08-13 08:00:00 20.7--- 12.4 15.759wxwxwxwx6wx--1009.6 995.1----wx
1994-08-13 09:00:00 20.8--- 12.1 15.658wxwxwx5wx10-1009.1 994.6----wx
1994-08-13 10:00:00 20.8--- 11.1 15.154wxwxwxwx6wx12-1009.0 994.5----wx
1994-08-13 11:00:00 20.2--- 10.6 14.654wxwxwxwx6wx11-1009.2 994.7----wx
1994-08-13 12:00:00 20.6--- 11.5 15.256wxwxwxwx5wx11-1009.2 994.7 0.0---wxw1
1994-08-13 13:00:00 20.3--- 10.5 14.653wxwxwxwx8wx15-1009.4 994.9----wx
1994-08-13 14:00:00 17.6--- 11.8 14.269wxwxwxwx9wx16-1010.5 995.8----wx
1994-08-13 15:00:00 15.9--- 13.2 14.384wxwxwxwx6wx11-1011.2 996.4----wxw1
1994-08-13 16:00:00 15.0--- 12.3 13.484wxwxwxwx8wx14-1011.9 997.1----wxw1
1994-08-13 17:00:00 15.4--- 10.1 12.470wxwxwx6wx11-1012.5 997.7----wx
1994-08-13 18:00:00 15.2--- 10.1 12.371wxwxwx4wx--1012.5 997.7 0.8---wxw1
1994-08-13 19:00:00 15.0--- 10.2 12.373wxwxwxwx3wx--1012.7 997.9----wx
1994-08-13 20:00:00 14.6--- 10.5 12.377wxwxwxwx4wx--1012.8 998.0----wx
1994-08-13 21:00:00 14.2--- 9.9 11.875wxwxwx3wx--1013.0 998.1----wx
1994-08-13 22:00:00 14.2--- 9.5 11.673wxwxwx4wx--1013.6 998.7----wx
1994-08-13 23:00:00 14.7--- 8.8 11.568wxwxwx4wx--1013.9 999.0----wx

 

Źródłem pochodzenia danych jest Instytut Meteorologii i Gospodarki Wodnej – Państwowy Instytut Badawczy. Dane Instytutu Meteorologii i Gospodarki Wodnej – Państwowego Instytutu Badawczego zostały przetworzone.

Dane źródłowe można odnaleźć na stronie https://dane.imgw.pl